Time;durP1;ratioP1;P1;durP2;ratioP2;P2;SDS_P1;SDS_P2;PMS_P1;PMS_P2;Temp;Humidity;BMP_temperature;BMP_pressure;BME280_temperature;BME280_humidity;BME280_pressure;Samples;Min_cycle;Max_cycle;Signal;HPM_P1;HPM_P2
2021/12/25 00:00:35;;;;;;;8.48;7.13;;;5.90;99.90;;;;;;5030961;28;20207;-72
2021/12/25 00:03:00;;;;;;;7.53;6.82;;;6.00;99.90;;;;;;5031797;28;20655;-71
2021/12/25 00:05:26;;;;;;;8.65;7.85;;;5.90;99.90;;;;;;5032801;28;20192;-71
2021/12/25 00:07:52;;;;;;;7.60;6.90;;;5.90;99.90;;;;;;5023100;28;20189;-71
2021/12/25 00:10:17;;;;;;;8.25;7.53;;;5.80;99.90;;;;;;5029430;28;20204;-72
2021/12/25 00:12:43;;;;;;;8.50;7.70;;;5.80;99.90;;;;;;5034532;28;20702;-71
2021/12/25 00:15:09;;;;;;;8.07;7.28;;;5.90;99.90;;;;;;5028550;28;20181;-71
2021/12/25 00:17:35;;;;;;;8.50;7.70;;;5.80;99.90;;;;;;5034533;28;20196;-71
2021/12/25 00:20:01;;;;;;;9.48;8.57;;;5.80;99.90;;;;;;5031175;28;20201;-71
2021/12/25 00:22:27;;;;;;;10.20;9.20;;;5.80;99.90;;;;;;5042576;28;20180;-71
2021/12/25 00:24:52;;;;;;;10.18;9.23;;;5.90;99.90;;;;;;5028824;28;20215;-72
2021/12/25 00:30:17;;;;;;;9.25;8.35;;;5.90;99.90;;;;;;5029533;28;20204;-72
2021/12/25 00:33:00;;;;;;;10.23;8.27;;;5.90;99.90;;;;;;5036182;28;20220;-73
2021/12/25 00:35:24;;;;;;;9.68;8.77;;;5.80;99.90;;;;;;5021374;28;20184;-74
2021/12/25 00:37:50;;;;;;;10.68;9.40;;;5.90;99.90;;;;;;5024424;28;20196;-71
2021/12/25 00:40:17;;;;;;;10.48;9.45;;;5.90;99.90;;;;;;5024822;28;20204;-72
2021/12/25 00:42:43;;;;;;;13.20;10.38;;;5.90;99.90;;;;;;5031325;28;20262;-72
2021/12/25 00:45:10;;;;;;;10.18;9.18;;;5.90;99.90;;;;;;5025739;28;20275;-72
2021/12/25 00:47:35;;;;;;;10.80;9.68;;;6.00;99.90;;;;;;5030690;28;20260;-72
2021/12/25 00:50:01;;;;;;;11.10;9.90;;;6.00;99.90;;;;;;5035908;28;20204;-72
2021/12/25 00:52:27;;;;;;;10.50;9.48;;;6.00;99.90;;;;;;5026940;28;20238;-72
2021/12/25 00:54:53;;;;;;;10.40;9.05;;;6.10;99.90;;;;;;5026854;28;20205;-72
2021/12/25 00:57:19;;;;;;;12.07;10.35;;;6.10;99.90;;;;;;5029558;28;20204;-72
2021/12/25 00:59:44;;;;;;;12.13;10.65;;;6.20;99.90;;;;;;5024424;28;20215;-73
2021/12/25 01:02:10;;;;;;;11.60;10.48;;;6.10;99.90;;;;;;5028446;28;20262;-72
2021/12/25 01:04:35;;;;;;;14.45;11.23;;;6.10;99.90;;;;;;5029288;28;20193;-72
2021/12/25 01:07:01;;;;;;;12.02;10.35;;;6.10;99.90;;;;;;5033772;28;20647;-72
2021/12/25 01:09:27;;;;;;;12.20;10.95;;;6.00;99.90;;;;;;5029106;28;20204;-72
2021/12/25 01:11:53;;;;;;;12.98;10.77;;;6.10;99.90;;;;;;5022382;28;20197;-72
2021/12/25 01:14:32;;;;;;;12.10;10.65;;;6.10;99.90;;;;;;5021899;28;20268;-74
2021/12/25 01:17:58;;;;;;;13.38;10.68;;;6.10;99.90;;;;;;5027288;28;20212;-72
2021/12/25 01:23:13;;;;;;;11.57;10.43;;;6.10;99.90;;;;;;5027999;28;20191;-71
2021/12/25 01:36:00;;;;;;;13.90;12.40;;;5.90;99.90;;;;;;5030057;28;20177;-72
2021/12/25 01:49:09;;;;;;;14.18;12.43;;;6.10;99.90;;;;;;5025304;28;20196;-72
2021/12/25 01:51:34;;;;;;;14.60;11.93;;;6.10;99.90;;;;;;5028676;28;20585;-72
2021/12/25 01:54:00;;;;;;;13.38;11.18;;;6.20;99.90;;;;;;5024866;28;20267;-72
2021/12/25 01:56:26;;;;;;;13.50;12.10;;;6.20;99.90;;;;;;5029013;28;20196;-72
2021/12/25 01:58:53;;;;;;;13.00;11.57;;;6.20;99.90;;;;;;5031792;28;20172;-71
2021/12/25 02:01:19;;;;;;;12.30;11.02;;;6.10;99.90;;;;;;5022455;28;20200;-72
2021/12/25 02:03:45;;;;;;;13.82;12.43;;;6.00;99.90;;;;;;5029998;28;20702;-71
2021/12/25 02:06:12;;;;;;;12.75;11.45;;;6.00;99.90;;;;;;5026599;28;20181;-72
2021/12/25 02:08:40;;;;;;;15.90;13.25;;;6.00;99.90;;;;;;5023316;28;20215;-72
2021/12/25 02:11:07;;;;;;;15.90;13.27;;;6.00;99.90;;;;;;5019908;28;20226;-75
2021/12/25 02:13:32;;;;;;;14.73;13.05;;;6.00;99.90;;;;;;5033074;28;20205;-73
2021/12/25 02:16:00;;;;;;;16.85;12.27;;;6.00;99.90;;;;;;5029105;28;20223;-72
2021/12/25 02:18:43;;;;;;;16.05;13.75;;;6.00;99.90;;;;;;5025632;28;20318;-72
2021/12/25 02:21:19;;;;;;;14.68;12.25;;;5.90;99.90;;;;;;5025462;28;20196;-73
2021/12/25 02:23:45;;;;;;;14.95;13.38;;;6.00;99.90;;;;;;5030726;28;20525;-72
2021/12/25 02:26:11;;;;;;;15.02;12.30;;;6.00;99.90;;;;;;5029142;28;20259;-72
2021/12/25 02:28:37;;;;;;;13.77;11.75;;;6.00;99.90;;;;;;5026251;28;20316;-72
2021/12/25 02:31:06;;;;;;;16.60;12.57;;;6.00;99.90;;;;;;5028034;28;20910;-72
2021/12/25 02:33:32;;;;;;;13.57;11.75;;;6.00;99.90;;;;;;5031506;28;20891;-72
2021/12/25 02:35:58;;;;;;;14.80;12.20;;;6.00;99.90;;;;;;5024888;28;20183;-72
2021/12/25 02:38:25;;;;;;;14.95;12.88;;;6.00;99.90;;;;;;5030018;28;20177;-72
2021/12/25 02:40:51;;;;;;;13.85;12.30;;;6.20;99.90;;;;;;5027934;28;20196;-71
2021/12/25 02:43:17;;;;;;;16.08;13.20;;;6.10;99.90;;;;;;5036272;28;20184;-71
2021/12/25 02:45:43;;;;;;;13.90;11.90;;;6.20;99.90;;;;;;5027538;28;20255;-71
2021/12/25 02:48:11;;;;;;;13.23;11.70;;;6.10;99.90;;;;;;5034838;28;20280;-71
2021/12/25 02:50:38;;;;;;;14.77;13.18;;;6.10;99.90;;;;;;5026434;28;20664;-71
2021/12/25 02:53:07;;;;;;;13.57;11.98;;;6.10;99.90;;;;;;5032727;28;20706;-72
2021/12/25 02:55:33;;;;;;;14.25;12.23;;;6.10;99.90;;;;;;5031180;28;20212;-72
2021/12/25 02:57:59;;;;;;;13.95;11.98;;;6.10;99.90;;;;;;5028347;28;20549;-71
2021/12/25 03:00:38;;;;;;;12.52;11.05;;;6.10;99.90;;;;;;5024560;28;20205;-71
2021/12/25 03:03:05;;;;;;;13.52;10.98;;;6.10;99.90;;;;;;5036921;28;20272;-74
2021/12/25 03:05:31;;;;;;;12.23;10.93;;;6.10;99.90;;;;;;5031838;28;20187;-72
2021/12/25 03:07:57;;;;;;;12.40;11.20;;;6.10;99.90;;;;;;5024695;28;20240;-72
2021/12/25 03:10:23;;;;;;;13.60;10.95;;;6.20;99.90;;;;;;5033990;28;20196;-72
2021/12/25 03:12:53;;;;;;;13.30;11.90;;;6.10;99.90;;;;;;5026058;28;20211;-72
2021/12/25 03:15:28;;;;;;;15.93;12.05;;;6.00;99.90;;;;;;5031678;28;20203;-72
2021/12/25 03:17:56;;;;;;;13.05;11.70;;;6.00;99.90;;;;;;5028388;28;20579;-72
2021/12/25 03:20:22;;;;;;;12.35;11.05;;;6.10;99.90;;;;;;5032508;28;20667;-72
2021/12/25 03:22:48;;;;;;;11.73;10.50;;;6.00;99.90;;;;;;5021475;28;20217;-72
2021/12/25 03:25:16;;;;;;;13.35;11.43;;;6.00;99.90;;;;;;5030303;28;20621;-73
2021/12/25 03:27:43;;;;;;;12.57;11.27;;;6.00;99.90;;;;;;5032233;28;21152;-71
2021/12/25 03:30:10;;;;;;;14.25;11.65;;;6.10;99.90;;;;;;5029864;28;20251;-71
2021/12/25 03:32:36;;;;;;;13.52;12.13;;;6.10;99.90;;;;;;5034240;28;20213;-71
2021/12/25 03:35:02;;;;;;;12.38;11.05;;;6.00;99.90;;;;;;5033625;28;20195;-72
2021/12/25 03:37:28;;;;;;;13.85;12.32;;;5.90;99.90;;;;;;5029999;28;20185;-75
2021/12/25 03:39:54;;;;;;;13.00;11.63;;;5.90;99.90;;;;;;5034827;28;20203;-72
2021/12/25 03:42:19;;;;;;;12.15;10.95;;;5.90;99.90;;;;;;5029919;28;20223;-72
2021/12/25 03:44:46;;;;;;;12.23;11.00;;;6.00;99.90;;;;;;5033015;28;20188;-72
2021/12/25 03:47:23;;;;;;;12.63;11.32;;;6.00;99.90;;;;;;5023490;28;20212;-72
2021/12/25 03:58:06;;;;;;;13.68;11.88;;;5.80;99.90;;;;;;5036883;28;20191;-72
2021/12/25 04:00:33;;;;;;;15.65;12.18;;;5.70;99.90;;;;;;5031280;28;20239;-71
2021/12/25 04:03:05;;;;;;;13.25;11.85;;;5.70;99.90;;;;;;5037927;28;20638;-71
2021/12/25 04:05:33;;;;;;;13.98;11.98;;;5.70;99.90;;;;;;5022901;28;20184;-71
2021/12/25 04:08:07;;;;;;;13.75;12.35;;;5.60;99.90;;;;;;5028562;28;20177;-71
2021/12/25 04:10:38;;;;;;;14.25;12.52;;;5.50;99.90;;;;;;5028650;28;20223;-72
2021/12/25 04:13:07;;;;;;;15.15;12.63;;;5.50;99.90;;;;;;5029867;28;20249;-71
2021/12/25 04:15:33;;;;;;;16.95;14.25;;;5.50;99.90;;;;;;5032602;28;20701;-72
2021/12/25 04:17:59;;;;;;;16.58;13.50;;;5.50;99.90;;;;;;5028154;28;20188;-71
2021/12/25 04:20:24;;;;;;;13.82;12.43;;;5.60;99.90;;;;;;5037630;28;20188;-73
2021/12/25 04:22:59;;;;;;;14.30;12.80;;;5.60;99.90;;;;;;5023165;28;20181;-72
2021/12/25 04:25:29;;;;;;;14.30;12.43;;;5.80;99.90;;;;;;5038811;28;20860;-71
2021/12/25 04:27:59;;;;;;;16.48;13.02;;;5.80;99.90;;;;;;5029079;28;20641;-72
2021/12/25 04:30:33;;;;;;;18.02;14.85;;;5.80;99.90;;;;;;5031158;28;21152;-71
2021/12/25 05:03:39;;;;;;;21.08;16.15;;;5.60;99.90;;;;;;5030937;28;20191;-71
2021/12/25 05:06:05;;;;;;;21.55;16.48;;;5.60;99.90;;;;;;5027794;28;20185;-72
2021/12/25 05:08:31;;;;;;;22.90;17.73;;;5.60;99.90;;;;;;5029271;28;20235;-74
2021/12/25 05:10:57;;;;;;;22.83;18.10;;;5.60;99.90;;;;;;5032361;28;20204;-71
2021/12/25 05:13:23;;;;;;;22.63;16.13;;;5.60;99.90;;;;;;5032825;28;20674;-71
2021/12/25 05:15:49;;;;;;;23.52;17.52;;;5.50;99.90;;;;;;5032206;28;20559;-71
2021/12/25 05:18:15;;;;;;;22.33;16.73;;;5.60;99.90;;;;;;5032447;28;20176;-71
2021/12/25 05:20:41;;;;;;;20.42;15.77;;;5.60;99.90;;;;;;5026703;28;20246;-71
2021/12/25 05:23:07;;;;;;;19.70;15.27;;;5.70;99.90;;;;;;5031370;28;20203;-71
2021/12/25 05:25:34;;;;;;;19.70;14.98;;;5.80;99.90;;;;;;5037592;28;20214;-71
2021/12/25 05:28:00;;;;;;;18.90;14.95;;;5.80;99.90;;;;;;5032498;28;20168;-71
2021/12/25 05:30:27;;;;;;;18.40;15.18;;;5.80;99.90;;;;;;5028249;28;20224;-71
2021/12/25 05:32:52;;;;;;;19.98;15.25;;;5.80;99.90;;;;;;5032744;28;20575;-72
2021/12/25 05:35:18;;;;;;;22.48;16.15;;;5.70;99.90;;;;;;5027405;28;20177;-72
2021/12/25 05:37:44;;;;;;;21.95;17.40;;;5.70;99.90;;;;;;5048576;28;20534;-74
2021/12/25 05:40:12;;;;;;;22.08;17.30;;;5.80;99.90;;;;;;5032222;28;20185;-74
2021/12/25 05:42:38;;;;;;;19.30;16.15;;;5.70;99.90;;;;;;5032348;28;20172;-71
2021/12/25 05:45:04;;;;;;;20.45;16.38;;;5.70;99.90;;;;;;5037388;28;20181;-71
2021/12/25 05:47:30;;;;;;;19.65;15.48;;;5.80;99.90;;;;;;5023921;28;20193;-74
2021/12/25 05:49:56;;;;;;;24.38;16.02;;;5.80;99.90;;;;;;5033828;28;20721;-72
2021/12/25 05:52:21;;;;;;;17.00;14.57;;;5.80;99.90;;;;;;5051843;28;20688;-71
2021/12/25 05:54:47;;;;;;;19.73;15.63;;;5.90;99.90;;;;;;5040366;28;20247;-71
2021/12/25 05:57:13;;;;;;;18.30;15.05;;;5.70;99.90;;;;;;5015680;28;20184;-72
2021/12/25 05:59:38;;;;;;;19.70;15.73;;;5.70;99.90;;;;;;5026579;28;20215;-73
2021/12/25 06:02:04;;;;;;;22.55;16.17;;;5.60;99.90;;;;;;5031961;28;20206;-71
2021/12/25 06:04:30;;;;;;;21.77;15.75;;;5.50;99.90;;;;;;5028430;28;20192;-71
2021/12/25 06:06:55;;;;;;;21.40;15.43;;;5.60;99.90;;;;;;5026925;28;20189;-71
2021/12/25 06:09:21;;;;;;;20.48;16.05;;;5.60;99.90;;;;;;5034870;28;20251;-71
2021/12/25 06:11:47;;;;;;;18.83;14.88;;;5.60;99.90;;;;;;5035255;28;20208;-72
2021/12/25 06:14:21;;;;;;;20.77;15.27;;;5.60;99.90;;;;;;5026490;28;20221;-71
2021/12/25 06:16:49;;;;;;;22.45;17.08;;;5.70;99.90;;;;;;5031113;28;20183;-74
2021/12/25 06:19:15;;;;;;;22.27;16.73;;;5.60;99.90;;;;;;5025023;28;20549;-71
2021/12/25 06:21:42;;;;;;;23.55;16.42;;;5.50;99.90;;;;;;5029978;28;20663;-72
2021/12/25 06:24:08;;;;;;;20.67;16.30;;;5.50;99.90;;;;;;5036023;28;20565;-71
2021/12/25 06:26:35;;;;;;;24.55;17.35;;;5.50;99.90;;;;;;5031626;28;20173;-71
2021/12/25 06:29:02;;;;;;;20.85;16.05;;;5.60;99.90;;;;;;5030850;28;20751;-71
2021/12/25 06:31:28;;;;;;;14.95;12.75;;;5.60;99.90;;;;;;5032814;28;20206;-72
2021/12/25 06:33:54;;;;;;;15.07;12.75;;;5.50;99.90;;;;;;5026933;28;20180;-75
2021/12/25 06:36:20;;;;;;;14.38;12.85;;;5.40;99.90;;;;;;5031189;28;20184;-74
2021/12/25 06:38:46;;;;;;;13.95;11.23;;;5.30;99.90;;;;;;5026455;28;20185;-73
2021/12/25 06:41:13;;;;;;;13.18;11.52;;;5.20;99.90;;;;;;5034082;28;20676;-74
2021/12/25 06:43:39;;;;;;;11.25;10.05;;;5.10;99.90;;;;;;5051683;28;20180;-74
2021/12/25 06:46:04;;;;;;;11.75;10.00;;;5.00;99.90;;;;;;5022863;28;20185;-74
2021/12/25 06:48:30;;;;;;;9.80;8.82;;;5.10;99.90;;;;;;5021972;28;20187;-74
2021/12/25 06:50:56;;;;;;;8.80;8.00;;;5.10;99.90;;;;;;5028585;28;20714;-75
2021/12/25 06:53:21;;;;;;;9.00;8.18;;;5.10;99.90;;;;;;5024849;28;20263;-74
2021/12/25 06:55:47;;;;;;;9.52;8.63;;;5.00;99.90;;;;;;5027687;28;20177;-74
2021/12/25 06:58:13;;;;;;;9.40;7.63;;;5.00;99.90;;;;;;5023039;28;20176;-74
2021/12/25 07:00:39;;;;;;;8.85;7.95;;;5.10;99.90;;;;;;5026051;28;20208;-74
2021/12/25 07:03:05;;;;;;;9.13;7.47;;;5.10;99.90;;;;;;5028397;28;20193;-74
2021/12/25 07:05:31;;;;;;;9.10;8.20;;;5.20;99.90;;;;;;5028074;28;20188;-74
2021/12/25 07:07:56;;;;;;;8.75;7.93;;;5.10;99.90;;;;;;5028630;28;20186;-75
2021/12/25 07:10:22;;;;;;;9.02;8.23;;;5.00;99.90;;;;;;5030145;28;20195;-76
2021/12/25 07:12:50;;;;;;;8.55;7.75;;;5.20;99.90;;;;;;5027731;28;20196;-75
2021/12/25 07:15:16;;;;;;;8.15;7.20;;;5.20;99.90;;;;;;5024131;28;20263;-72
2021/12/25 07:17:42;;;;;;;8.38;7.55;;;5.10;99.90;;;;;;5022128;28;20191;-72
2021/12/25 07:20:09;;;;;;;9.32;8.10;;;5.20;99.90;;;;;;5028297;28;20570;-71
2021/12/25 07:22:35;;;;;;;9.85;8.85;;;5.10;99.90;;;;;;5028203;28;20549;-74
2021/12/25 07:25:02;;;;;;;8.75;7.95;;;5.10;99.90;;;;;;5027016;28;20271;-73
2021/12/25 07:27:28;;;;;;;9.63;8.73;;;5.00;99.90;;;;;;5032308;28;20286;-73
2021/12/25 07:29:53;;;;;;;9.23;8.30;;;5.10;99.90;;;;;;5031519;28;20291;-72
2021/12/25 07:32:19;;;;;;;9.23;8.32;;;5.20;99.90;;;;;;5028433;28;20227;-72
2021/12/25 07:34:46;;;;;;;9.05;8.18;;;5.20;99.90;;;;;;5028124;28;20176;-72
2021/12/25 07:37:13;;;;;;;9.45;8.55;;;5.20;99.90;;;;;;5025829;28;20204;-72
2021/12/25 07:39:40;;;;;;;8.13;7.40;;;5.30;99.90;;;;;;5031577;28;20198;-74
2021/12/25 07:42:06;;;;;;;9.07;8.15;;;5.20;99.90;;;;;;5027472;28;20188;-72
2021/12/25 07:44:32;;;;;;;7.72;7.03;;;5.20;99.90;;;;;;5029997;28;20185;-73
2021/12/25 07:46:58;;;;;;;8.60;7.70;;;5.20;99.90;;;;;;5032364;28;20207;-73
2021/12/25 07:49:24;;;;;;;9.20;8.35;;;5.20;99.90;;;;;;5026680;28;20204;-72
2021/12/25 07:51:49;;;;;;;8.32;7.50;;;5.30;99.90;;;;;;5027242;28;20215;-72
2021/12/25 07:54:15;;;;;;;8.95;8.00;;;5.30;99.90;;;;;;5021465;28;20181;-72
2021/12/25 07:56:41;;;;;;;9.65;8.65;;;5.30;99.90;;;;;;5027072;28;20702;-71
2021/12/25 07:59:07;;;;;;;8.15;7.35;;;5.30;99.90;;;;;;5029595;28;20238;-72
2021/12/25 08:01:34;;;;;;;9.38;8.50;;;5.30;99.90;;;;;;5036951;28;20186;-71
2021/12/25 08:04:01;;;;;;;9.50;8.60;;;5.20;99.90;;;;;;5038608;28;20306;-73
2021/12/25 08:06:27;;;;;;;8.70;7.80;;;5.20;99.90;;;;;;5040041;28;20176;-72
2021/12/25 08:08:55;;;;;;;8.63;7.82;;;5.20;99.90;;;;;;5024193;28;20604;-73
2021/12/25 08:11:21;;;;;;;8.50;7.70;;;5.20;99.90;;;;;;5031054;28;20299;-72
2021/12/25 08:13:47;;;;;;;7.90;7.13;;;5.30;99.90;;;;;;5027000;28;20263;-72
2021/12/25 08:16:12;;;;;;;8.35;7.57;;;5.20;99.90;;;;;;5023734;28;20195;-74
2021/12/25 08:18:38;;;;;;;8.50;7.35;;;5.10;99.90;;;;;;5018929;28;20185;-73
2021/12/25 08:21:04;;;;;;;8.20;7.30;;;5.10;99.90;;;;;;5029757;28;20663;-74
2021/12/25 08:23:33;;;;;;;7.50;6.80;;;5.10;99.90;;;;;;5025214;28;20659;-72
2021/12/25 08:26:00;;;;;;;7.28;6.57;;;5.20;99.90;;;;;;5024279;28;20203;-73
2021/12/25 08:28:26;;;;;;;6.97;5.93;;;5.30;99.90;;;;;;5020512;28;20180;-75
2021/12/25 08:30:52;;;;;;;7.38;6.65;;;5.30;99.90;;;;;;5021687;28;20193;-72
2021/12/25 08:33:18;;;;;;;7.40;6.70;;;5.10;99.90;;;;;;5025403;28;20183;-72
2021/12/25 08:35:43;;;;;;;6.60;6.00;;;5.00;99.90;;;;;;5024600;28;20185;-72
2021/12/25 08:38:11;;;;;;;6.97;6.28;;;5.10;99.90;;;;;;5024121;28;20181;-72
2021/12/25 08:40:38;;;;;;;7.40;6.63;;;5.00;99.90;;;;;;5022632;28;20262;-71
2021/12/25 08:43:04;;;;;;;6.03;5.43;;;5.00;99.90;;;;;;5021651;28;20224;-71
2021/12/25 08:45:41;;;;;;;5.40;5.00;;;5.00;99.90;;;;;;5019422;28;20183;-71
2021/12/25 08:48:16;;;;;;;6.10;5.53;;;5.00;99.90;;;;;;5023957;28;20184;-73
2021/12/25 08:50:49;;;;;;;5.65;5.15;;;5.00;99.90;;;;;;5019815;28;20690;-71
2021/12/25 08:53:16;;;;;;;5.80;5.28;;;5.00;99.90;;;;;;5027650;28;20172;-72
2021/12/25 08:55:42;;;;;;;6.30;5.70;;;5.00;99.90;;;;;;5023971;28;20181;-70
2021/12/25 08:58:08;;;;;;;5.72;4.85;;;5.10;99.90;;;;;;5031277;28;20184;-70
2021/12/25 09:00:34;;;;;;;6.20;5.60;;;5.20;99.90;;;;;;5024662;28;20212;-70
2021/12/25 09:02:59;;;;;;;6.57;5.95;;;5.30;99.90;;;;;;5024196;28;20173;-70
2021/12/25 09:05:25;;;;;;;5.70;5.28;;;5.30;99.90;;;;;;5020580;28;20192;-72
2021/12/25 09:07:51;;;;;;;5.88;5.38;;;5.20;99.90;;;;;;5024978;28;20213;-71
2021/12/25 09:10:18;;;;;;;6.53;5.80;;;5.20;99.90;;;;;;5024484;28;20201;-71
2021/12/25 09:12:45;;;;;;;6.28;5.68;;;5.20;99.90;;;;;;5024758;28;20201;-71
2021/12/25 09:15:11;;;;;;;6.45;5.85;;;5.20;99.90;;;;;;5024626;28;20169;-71
2021/12/25 09:17:38;;;;;;;6.57;6.00;;;5.20;99.90;;;;;;5026816;28;20528;-71
2021/12/25 09:20:06;;;;;;;6.93;6.25;;;5.20;99.90;;;;;;5024409;28;20204;-71
2021/12/25 09:22:32;;;;;;;6.60;5.93;;;5.30;99.90;;;;;;5027181;28;20177;-74
2021/12/25 09:24:57;;;;;;;7.55;6.78;;;5.40;99.90;;;;;;5025582;28;20180;-71
2021/12/25 09:27:23;;;;;;;9.43;6.93;;;5.60;99.90;;;;;;5023247;28;20192;-71
2021/12/25 09:29:49;;;;;;;6.80;6.10;;;5.70;99.90;;;;;;5026521;28;20218;-71
2021/12/25 09:32:14;;;;;;;6.22;5.72;;;5.80;99.90;;;;;;5024209;28;20239;-71
2021/12/25 09:34:40;;;;;;;6.78;6.18;;;5.80;99.90;;;;;;5016114;28;20645;-71
2021/12/25 09:37:06;;;;;;;6.15;5.55;;;5.90;99.90;;;;;;5022054;28;20195;-72
2021/12/25 09:39:32;;;;;;;6.07;5.57;;;5.80;99.90;;;;;;5015919;28;20197;-72
2021/12/25 09:41:58;;;;;;;5.85;5.35;;;5.80;99.90;;;;;;5016874;28;20668;-72
2021/12/25 09:44:25;;;;;;;5.78;5.22;;;5.80;99.90;;;;;;5017076;28;20192;-73
2021/12/25 09:46:50;;;;;;;5.28;4.78;;;5.80;99.90;;;;;;5019525;28;20177;-72
2021/12/25 09:49:17;;;;;;;4.65;4.20;;;5.80;99.90;;;;;;5021368;28;20246;-74
2021/12/25 09:51:42;;;;;;;4.75;4.35;;;5.80;99.90;;;;;;5022985;28;20197;-72
2021/12/25 09:54:14;;;;;;;4.47;3.15;;;5.80;99.90;;;;;;5021580;28;20243;-74
2021/12/25 09:56:42;;;;;;;3.30;3.00;;;5.70;99.90;;;;;;5023215;28;20173;-72
2021/12/25 09:59:12;;;;;;;3.05;2.85;;;5.50;99.90;;;;;;5024265;28;20189;-73
2021/12/25 10:01:45;;;;;;;3.60;3.30;;;5.50;99.90;;;;;;5024201;28;20659;-72
2021/12/25 10:04:29;;;;;;;3.30;3.10;;;5.40;99.90;;;;;;5029411;28;20186;-72
2021/12/25 10:06:55;;;;;;;2.75;2.60;;;5.50;99.90;;;;;;5023085;28;20660;-72
2021/12/25 10:09:26;;;;;;;3.30;3.10;;;5.30;99.90;;;;;;5019818;28;20216;-73
2021/12/25 10:12:08;;;;;;;3.00;2.80;;;5.20;99.90;;;;;;5016175;28;20197;-73
2021/12/25 10:14:35;;;;;;;3.17;2.97;;;5.20;99.90;;;;;;5025552;28;20199;-73
2021/12/25 10:17:17;;;;;;;2.97;2.78;;;5.20;99.90;;;;;;5031763;28;20173;-74
2021/12/25 10:19:58;;;;;;;2.72;2.63;;;5.30;99.90;;;;;;5025834;28;20243;-74
2021/12/25 10:22:23;;;;;;;2.60;2.47;;;5.50;99.90;;;;;;5026468;28;20183;-73
2021/12/25 10:25:08;;;;;;;2.63;2.45;;;5.40;99.90;;;;;;5033885;28;20185;-75
2021/12/25 10:27:34;;;;;;;3.08;2.88;;;5.30;99.90;;;;;;5030211;28;20189;-75
2021/12/25 10:30:03;;;;;;;2.70;2.50;;;5.30;99.90;;;;;;5025080;28;20209;-72
2021/12/25 10:32:29;;;;;;;2.28;2.17;;;5.30;99.90;;;;;;5024104;28;20196;-72
2021/12/25 10:34:55;;;;;;;2.28;2.17;;;5.20;99.90;;;;;;5019159;28;20684;-71
2021/12/25 10:37:22;;;;;;;2.25;2.15;;;5.20;99.90;;;;;;5026733;28;20717;-72
2021/12/25 10:39:49;;;;;;;2.28;2.10;;;5.00;99.90;;;;;;5024821;28;20240;-73
2021/12/25 10:42:19;;;;;;;2.40;2.30;;;4.90;99.90;;;;;;5027999;28;20689;-72
2021/12/25 10:44:51;;;;;;;2.20;2.10;;;4.80;99.90;;;;;;5029822;28;20182;-72
2021/12/25 10:47:22;;;;;;;1.98;1.92;;;4.80;99.90;;;;;;5033757;28;20196;-72
2021/12/25 10:49:52;;;;;;;2.13;1.88;;;4.80;99.90;;;;;;5027902;28;20667;-76
2021/12/25 10:52:31;;;;;;;2.38;2.20;;;4.80;99.90;;;;;;5030352;28;20605;-73
2021/12/25 10:54:58;;;;;;;2.40;2.30;;;4.60;99.90;;;;;;5024474;28;20235;-73
2021/12/25 10:57:42;;;;;;;2.40;2.30;;;4.50;99.90;;;;;;5032450;28;20180;-74
2021/12/25 11:00:10;;;;;;;2.20;2.10;;;4.40;99.90;;;;;;5029108;28;20708;-73
2021/12/25 11:02:40;;;;;;;3.03;2.43;;;4.30;99.90;;;;;;5029972;28;20281;-72
2021/12/25 11:05:18;;;;;;;2.45;2.35;;;4.20;99.90;;;;;;5019182;28;20272;-74
2021/12/25 11:07:45;;;;;;;2.10;2.00;;;4.30;99.90;;;;;;5026454;28;20672;-76
2021/12/25 11:10:15;;;;;;;2.30;2.20;;;4.20;99.90;;;;;;5027404;28;20223;-72
2021/12/25 11:12:41;;;;;;;2.30;2.20;;;4.20;99.90;;;;;;5024879;28;20560;-74
2021/12/25 11:15:18;;;;;;;2.03;1.93;;;4.20;99.90;;;;;;5025203;28;20185;-75
2021/12/25 11:17:50;;;;;;;2.63;2.43;;;4.20;99.90;;;;;;5026489;28;20203;-72
2021/12/25 11:20:21;;;;;;;2.43;2.23;;;4.30;99.90;;;;;;5027530;28;20679;-71
2021/12/25 11:22:56;;;;;;;2.40;2.30;;;4.20;99.90;;;;;;5029864;28;20193;-72
2021/12/25 11:25:27;;;;;;;2.17;2.07;;;4.10;99.90;;;;;;5030152;28;20585;-72
2021/12/25 11:27:54;;;;;;;2.30;2.20;;;4.20;99.90;;;;;;5030581;28;20528;-73
2021/12/25 11:30:23;;;;;;;2.43;2.33;;;4.10;99.90;;;;;;5032481;28;20204;-72
2021/12/25 11:32:50;;;;;;;2.83;2.73;;;4.10;99.90;;;;;;5024808;28;20204;-73
2021/12/25 11:35:18;;;;;;;2.40;2.30;;;4.20;99.90;;;;;;5026104;28;20180;-73
2021/12/25 11:37:46;;;;;;;2.33;2.23;;;4.30;99.90;;;;;;5028065;28;20187;-74
2021/12/25 11:40:13;;;;;;;2.10;2.00;;;4.30;99.90;;;;;;5027378;28;20212;-71
2021/12/25 11:42:42;;;;;;;1.70;1.70;;;4.40;99.90;;;;;;5022324;28;20200;-71
2021/12/25 11:45:19;;;;;;;1.73;1.70;;;4.50;99.90;;;;;;5027124;28;20180;-71
2021/12/25 11:47:52;;;;;;;1.90;1.80;;;4.50;99.90;;;;;;5029356;28;20191;-72
2021/12/25 11:50:23;;;;;;;2.00;1.90;;;4.20;99.90;;;;;;5025931;28;20631;-70
2021/12/25 11:54:11;;;;;;;2.00;1.90;;;4.10;99.90;;;;;;5030280;28;20208;-72
2021/12/25 11:57:00;;;;;;;2.83;1.40;;;4.40;99.90;;;;;;5023388;28;20884;-70
2021/12/25 11:59:26;;;;;;;1.93;1.73;;;4.50;99.90;;;;;;5028177;28;20215;-71
2021/12/25 12:01:54;;;;;;;1.60;1.50;;;4.40;99.90;;;;;;5055885;28;20184;-70
2021/12/25 12:04:24;;;;;;;1.40;1.40;;;4.40;99.90;;;;;;5026687;28;20688;-71
2021/12/25 12:07:01;;;;;;;1.80;1.70;;;4.40;99.90;;;;;;5028444;28;20567;-70
2021/12/25 12:09:49;;;;;;;1.50;1.40;;;4.50;99.90;;;;;;5034740;28;20681;-71
2021/12/25 12:12:26;;;;;;;1.80;1.70;;;4.40;99.90;;;;;;5023400;28;20242;-70
2021/12/25 12:15:15;;;;;;;1.60;1.60;;;4.70;99.90;;;;;;5024313;28;20187;-72
2021/12/25 12:17:42;;;;;;;1.67;1.58;;;4.70;99.90;;;;;;5034532;28;20599;-70
2021/12/25 12:20:15;;;;;;;1.58;1.58;;;4.70;99.90;;;;;;5024488;28;20236;-70
2021/12/25 12:22:56;;;;;;;1.55;1.50;;;4.60;99.90;;;;;;5040279;28;20208;-70
2021/12/25 12:25:43;;;;;;;1.83;1.73;;;4.70;99.90;;;;;;5029840;28;20181;-70
2021/12/25 12:28:10;;;;;;;1.60;1.50;;;4.90;99.90;;;;;;5029870;28;20195;-70
2021/12/25 12:30:39;;;;;;;1.48;1.45;;;5.20;99.90;;;;;;5031140;28;20209;-70
2021/12/25 12:33:20;;;;;;;1.90;1.80;;;5.40;99.90;;;;;;5029688;28;20303;-70
2021/12/25 12:35:50;;;;;;;1.80;1.70;;;5.30;99.90;;;;;;5033029;28;20226;-70
2021/12/25 12:38:39;;;;;;;1.52;1.50;;;5.10;99.90;;;;;;5027569;28;20177;-70
2021/12/25 12:41:25;;;;;;;1.70;1.60;;;4.70;99.90;;;;;;5028815;28;20284;-70
2021/12/25 12:43:56;;;;;;;1.95;1.85;;;4.40;99.90;;;;;;5025276;28;20629;-71
2021/12/25 12:46:41;;;;;;;2.20;1.55;;;4.50;99.90;;;;;;5037820;28;20176;-71
2021/12/25 12:49:08;;;;;;;1.93;1.87;;;4.30;99.90;;;;;;5027250;28;20560;-71
2021/12/25 12:51:35;;;;;;;2.17;2.08;;;4.30;99.90;;;;;;5026769;28;20200;-71
2021/12/25 12:54:02;;;;;;;2.20;2.10;;;4.30;99.90;;;;;;5029641;28;20184;-72
2021/12/25 12:56:28;;;;;;;2.33;2.22;;;4.10;99.90;;;;;;5028635;28;20169;-71
2021/12/25 12:58:57;;;;;;;2.13;2.03;;;3.90;99.90;;;;;;5028298;28;20188;-71
2021/12/25 13:01:27;;;;;;;2.43;2.33;;;3.90;99.90;;;;;;5031395;28;20222;-72
2021/12/25 13:03:59;;;;;;;2.20;2.10;;;3.90;99.90;;;;;;5028925;28;20188;-71
2021/12/25 13:06:30;;;;;;;2.20;2.10;;;3.90;99.90;;;;;;5027229;28;20220;-71
2021/12/25 13:09:01;;;;;;;2.30;2.20;;;3.80;99.90;;;;;;5028776;28;20173;-72
2021/12/25 13:11:32;;;;;;;2.40;2.30;;;3.70;99.90;;;;;;5027142;28;20231;-70
2021/12/25 13:14:01;;;;;;;2.33;2.13;;;3.70;99.90;;;;;;5028824;28;20178;-70
2021/12/25 13:16:39;;;;;;;2.57;2.40;;;3.60;99.90;;;;;;5038153;28;20258;-71
2021/12/25 13:19:06;;;;;;;2.07;1.97;;;3.40;99.90;;;;;;5029057;28;20188;-71
2021/12/25 13:21:34;;;;;;;2.50;2.40;;;3.30;99.90;;;;;;5029699;28;20690;-71
2021/12/25 13:24:07;;;;;;;2.83;2.63;;;3.10;99.90;;;;;;5022133;28;20195;-72
2021/12/25 13:26:38;;;;;;;2.80;2.60;;;3.20;99.90;;;;;;5030500;28;20206;-70
2021/12/25 13:29:06;;;;;;;2.70;2.60;;;3.10;99.90;;;;;;5030743;28;20255;-70
2021/12/25 13:31:34;;;;;;;2.40;2.30;;;3.00;99.90;;;;;;5025841;28;20279;-70
2021/12/25 13:34:11;;;;;;;2.50;2.30;;;3.10;99.90;;;;;;5027348;28;20177;-70
2021/12/25 13:36:38;;;;;;;1.83;1.83;;;3.00;99.90;;;;;;5031162;28;20678;-70
2021/12/25 13:39:15;;;;;;;2.77;2.50;;;3.00;99.90;;;;;;5027643;28;20234;-70
2021/12/25 13:41:52;;;;;;;2.30;2.20;;;2.90;99.90;;;;;;5032943;28;20275;-71
2021/12/25 13:44:33;;;;;;;2.43;2.33;;;2.80;99.90;;;;;;5027533;28;20547;-69
2021/12/25 13:47:14;;;;;;;2.33;2.23;;;2.80;99.90;;;;;;5031818;28;20184;-69
2021/12/25 13:49:51;;;;;;;2.70;2.60;;;2.70;99.90;;;;;;5032915;28;20200;-69
2021/12/25 13:52:20;;;;;;;2.80;2.60;;;2.70;99.90;;;;;;5037416;28;20700;-69
2021/12/25 13:54:56;;;;;;;3.10;2.90;;;2.60;99.90;;;;;;5029233;28;20185;-69
2021/12/25 13:57:24;;;;;;;2.90;2.43;;;2.60;99.90;;;;;;5024490;28;20256;-69
2021/12/25 13:59:53;;;;;;;2.83;2.67;;;2.70;99.90;;;;;;5025796;28;20659;-69
2021/12/25 14:02:20;;;;;;;2.20;2.10;;;2.60;99.90;;;;;;5024536;28;20599;-69